createdAt,value
2018-08-04T00:00:00.560Z,102072.36
2018-08-04T00:02:29.373Z,102068.38
2018-08-04T00:04:58.189Z,102064.22
2018-08-04T00:07:27.270Z,102065.43
2018-08-04T00:09:56.158Z,102066.59
2018-08-04T00:12:25.000Z,102059.48
2018-08-04T00:14:53.855Z,102054.91
2018-08-04T00:17:22.765Z,102066.99
2018-08-04T00:19:51.706Z,102055.48
2018-08-04T00:22:20.475Z,102053.70
2018-08-04T00:24:49.111Z,102054.30
2018-08-04T00:27:17.870Z,102055.66
2018-08-04T00:29:46.680Z,102054.09
2018-08-04T00:32:15.586Z,102062.61
2018-08-04T00:34:44.398Z,102060.45
2018-08-04T00:37:13.214Z,102050.10
2018-08-04T00:39:41.798Z,102059.25
2018-08-04T00:42:10.482Z,102054.29
2018-08-04T00:44:39.431Z,102061.03
2018-08-04T00:47:08.253Z,102060.45
2018-08-04T00:49:37.047Z,102062.61
2018-08-04T00:52:05.946Z,102060.45
2018-08-04T00:54:34.754Z,102066.34
2018-08-04T00:57:03.762Z,102064.95
2018-08-04T00:59:32.551Z,102067.34
2018-08-04T01:02:01.318Z,102068.72
2018-08-04T01:04:29.990Z,102073.39
2018-08-04T01:06:58.785Z,102066.47
2018-08-04T01:09:27.654Z,102059.98
2018-08-04T01:11:56.702Z,102062.98
2018-08-04T01:14:25.531Z,102056.36
2018-08-04T01:16:54.383Z,102053.58
2018-08-04T01:19:23.568Z,102049.70
2018-08-04T01:21:52.722Z,102047.14
2018-08-04T01:24:21.559Z,102054.20
2018-08-04T01:26:50.323Z,102051.97
2018-08-04T01:29:19.162Z,102055.93
2018-08-04T01:31:48.262Z,102052.19
2018-08-04T01:34:17.138Z,102052.16
2018-08-04T01:36:45.908Z,102045.06
2018-08-04T01:39:14.552Z,102037.55
2018-08-04T01:41:43.332Z,102030.41
2018-08-04T01:44:12.117Z,102029.59
2018-08-04T01:46:41.051Z,102024.45
2018-08-04T01:49:09.873Z,102018.89
2018-08-04T01:51:38.688Z,102018.31
2018-08-04T01:54:07.460Z,102019.98
2018-08-04T01:56:36.521Z,102018.09
2018-08-04T01:59:05.424Z,102011.38
2018-08-04T02:01:34.232Z,102015.55
2018-08-04T02:04:03.034Z,102020.65
2018-08-04T02:06:31.932Z,102026.59
2018-08-04T02:09:00.719Z,102025.61
2018-08-04T02:11:29.628Z,102022.56
2018-08-04T02:13:58.400Z,102019.20
2018-08-04T02:16:27.258Z,102022.25
2018-08-04T02:18:56.007Z,102021.45
2018-08-04T02:21:25.059Z,102017.81
2018-08-04T02:23:53.910Z,102015.61
2018-08-04T02:26:22.767Z,102015.87
2018-08-04T02:28:51.536Z,102008.95
2018-08-04T02:31:20.447Z,102005.42
2018-08-04T02:33:49.199Z,102000.28
2018-08-04T02:36:18.083Z,101997.46
2018-08-04T02:38:46.782Z,101998.20
2018-08-04T02:41:15.637Z,101991.27
2018-08-04T02:43:44.446Z,101992.97
2018-08-04T02:46:13.294Z,101996.69
2018-08-04T02:48:42.053Z,101990.78
2018-08-04T02:51:10.831Z,101992.61
2018-08-04T02:53:39.869Z,101985.83
2018-08-04T02:56:08.681Z,101988.48
2018-08-04T02:58:37.484Z,101989.77
2018-08-04T03:01:06.465Z,101983.86
2018-08-04T03:03:35.268Z,101985.83
2018-08-04T03:06:04.317Z,101993.73
2018-08-04T03:08:33.187Z,101990.38
2018-08-04T03:11:01.783Z,101990.36
2018-08-04T03:13:30.663Z,101993.00
2018-08-04T03:15:59.496Z,101993.25
2018-08-04T03:18:28.342Z,101997.13
2018-08-04T03:20:57.439Z,101990.38
2018-08-04T03:23:26.267Z,101986.59
2018-08-04T03:25:54.909Z,101988.52
2018-08-04T03:28:23.716Z,101987.04
2018-08-04T03:30:52.531Z,101979.39
2018-08-04T03:33:21.338Z,101987.98
2018-08-04T03:35:50.147Z,101987.94
2018-08-04T03:38:19.002Z,101978.88
2018-08-04T03:40:47.819Z,101976.27
2018-08-04T03:43:16.754Z,101982.45
2018-08-04T03:45:45.636Z,101993.59
2018-08-04T03:48:14.268Z,101992.16
2018-08-04T03:50:42.958Z,101986.34
2018-08-04T03:53:11.794Z,101982.43
2018-08-04T03:55:40.413Z,101982.33
2018-08-04T03:58:09.491Z,101993.78
2018-08-04T04:00:38.444Z,101994.76
2018-08-04T04:03:07.352Z,101994.71
2018-08-04T04:05:36.130Z,101999.08
2018-08-04T04:08:05.007Z,101992.86
2018-08-04T04:10:33.957Z,101985.30
2018-08-04T04:13:02.739Z,101977.65
2018-08-04T04:15:31.662Z,101972.14
2018-08-04T04:18:00.430Z,101972.25
2018-08-04T04:20:29.239Z,101980.89
2018-08-04T04:22:58.067Z,101983.31
2018-08-04T04:25:27.095Z,101982.68
2018-08-04T04:28:02.095Z,101985.14
2018-08-04T04:30:30.879Z,101986.70
2018-08-04T04:32:59.689Z,101986.61
2018-08-04T04:35:28.483Z,101996.35
2018-08-04T04:37:57.353Z,101991.44
2018-08-04T04:40:26.179Z,101996.77
2018-08-04T04:42:54.834Z,101992.41
2018-08-04T04:45:23.655Z,101994.19
2018-08-04T04:47:52.264Z,101992.05
2018-08-04T04:50:21.291Z,102008.25
2018-08-04T04:52:50.342Z,102009.15
2018-08-04T04:55:19.103Z,102007.45
2018-08-04T04:57:47.946Z,102014.89
2018-08-04T05:00:16.712Z,102011.17
2018-08-04T05:02:45.548Z,102020.33
2018-08-04T05:05:14.296Z,102011.24
2018-08-04T05:07:43.188Z,102015.25
2018-08-04T05:10:11.962Z,102024.13
2018-08-04T05:12:40.549Z,102026.47
2018-08-04T05:15:09.560Z,102029.18
2018-08-04T05:17:38.460Z,102026.66
2018-08-04T05:20:07.731Z,102019.32
2018-08-04T05:22:36.536Z,102013.43
2018-08-04T05:25:05.928Z,102017.23
2018-08-04T05:27:34.783Z,102028.92
2018-08-04T05:30:04.099Z,102035.27
2018-08-04T05:32:32.917Z,102031.91
2018-08-04T05:35:01.712Z,102028.73
2018-08-04T05:37:30.603Z,102025.38
2018-08-04T05:39:59.417Z,102028.75
2018-08-04T05:42:28.177Z,102038.45
2018-08-04T05:44:57.013Z,102044.58
2018-08-04T05:47:25.798Z,102059.53
2018-08-04T05:49:54.602Z,102063.02
2018-08-04T05:52:23.415Z,102060.66
2018-08-04T05:54:52.423Z,102057.64
2018-08-04T05:57:21.085Z,102067.39
2018-08-04T05:59:49.890Z,102074.69
2018-08-04T06:02:18.485Z,102074.73
2018-08-04T06:04:47.404Z,102076.30
2018-08-04T06:07:16.158Z,102075.72
2018-08-04T06:09:44.821Z,102071.97
2018-08-04T06:12:13.614Z,102069.59
2018-08-04T06:14:42.470Z,102071.56
2018-08-04T06:17:11.322Z,102069.19
2018-08-04T06:19:40.297Z,102072.95
2018-08-04T06:22:09.189Z,102064.23
2018-08-04T06:24:37.987Z,102070.39
2018-08-04T06:27:06.846Z,102060.28
2018-08-04T06:29:35.717Z,102066.44
2018-08-04T06:32:04.962Z,102064.80
2018-08-04T06:34:33.787Z,102060.72
2018-08-04T06:37:02.687Z,102058.07
2018-08-04T06:39:31.496Z,102053.20
2018-08-04T06:42:00.385Z,102052.45
2018-08-04T06:44:29.270Z,102049.45
2018-08-04T06:46:58.279Z,102056.13
2018-08-04T06:49:27.393Z,102059.99
2018-08-04T06:51:56.255Z,102059.47
2018-08-04T06:54:24.926Z,102061.88
2018-08-04T06:56:53.818Z,102059.05
2018-08-04T06:59:22.619Z,102056.89
2018-08-04T07:01:51.700Z,102059.73
2018-08-04T07:04:20.515Z,102062.59
2018-08-04T07:06:49.436Z,102067.95
2018-08-04T07:09:18.078Z,102064.89
2018-08-04T07:11:46.937Z,102066.89
2018-08-04T07:14:15.720Z,102072.62
2018-08-04T07:16:45.690Z,102066.07
2018-08-04T07:19:14.364Z,102060.36
2018-08-04T07:21:43.189Z,102067.00
2018-08-04T07:24:11.998Z,102063.80
2018-08-04T07:26:40.760Z,102062.34
2018-08-04T07:29:09.593Z,102057.47
2018-08-04T07:31:38.446Z,102061.91
2018-08-04T07:34:07.399Z,102062.75
2018-08-04T07:36:36.231Z,102054.57
2018-08-04T07:39:07.898Z,102057.19
2018-08-04T07:41:36.701Z,102057.28
2018-08-04T07:44:06.092Z,102061.70
2018-08-04T07:46:35.731Z,102067.22
2018-08-04T07:49:04.466Z,102074.42
2018-08-04T07:51:33.324Z,102061.41
2018-08-04T07:54:02.095Z,102056.04
2018-08-04T07:56:31.083Z,102058.00
2018-08-04T07:59:00.455Z,102053.78
2018-08-04T08:01:29.390Z,102055.33
2018-08-04T08:03:58.131Z,102056.53
2018-08-04T08:06:27.050Z,102054.77
2018-08-04T08:08:55.950Z,102042.34
2018-08-04T08:11:24.826Z,102039.58
2018-08-04T08:13:53.607Z,102045.36
2018-08-04T08:16:22.670Z,102048.59
2018-08-04T08:18:51.483Z,102046.61
2018-08-04T08:21:20.523Z,102042.50
2018-08-04T08:23:49.181Z,102040.31
2018-08-04T08:26:17.969Z,102046.05
2018-08-04T08:28:46.798Z,102044.15
2018-08-04T08:31:15.480Z,102042.97
2018-08-04T08:33:44.398Z,102052.26
2018-08-04T08:36:13.272Z,102047.52
2018-08-04T08:38:41.914Z,102048.92
2018-08-04T08:41:10.755Z,102041.71
2018-08-04T08:43:39.575Z,102041.23
2018-08-04T08:46:08.358Z,102040.30
2018-08-04T08:48:37.196Z,102045.83
2018-08-04T08:51:06.094Z,102035.62
2018-08-04T08:53:35.066Z,102043.77
2018-08-04T08:56:03.808Z,102044.14
2018-08-04T08:58:32.782Z,102038.09
2018-08-04T09:01:01.421Z,102034.02
2018-08-04T09:03:30.257Z,102046.23
2018-08-04T09:05:59.039Z,102042.86
2018-08-04T09:08:27.918Z,102045.77
2018-08-04T09:11:01.317Z,102043.87
2018-08-04T09:13:30.490Z,102043.05
2018-08-04T09:15:59.291Z,102040.66
2018-08-04T09:18:28.135Z,102042.87
2018-08-04T09:20:57.102Z,102048.08
2018-08-04T09:23:25.991Z,102042.16
2018-08-04T09:25:54.847Z,102041.65
2018-08-04T09:28:23.674Z,102043.31
2018-08-04T09:30:52.522Z,102038.12
2018-08-04T09:33:21.702Z,102046.63
2018-08-04T09:35:50.515Z,102038.35
2018-08-04T09:38:19.293Z,102038.12
2018-08-04T09:40:48.177Z,102028.99
2018-08-04T09:43:16.940Z,102022.79
2018-08-04T09:45:51.791Z,102028.69
2018-08-04T09:48:20.600Z,102025.72
2018-08-04T09:50:49.435Z,102033.95
2018-08-04T09:53:18.231Z,102033.77
2018-08-04T09:55:47.198Z,102037.30
2018-08-04T09:58:15.963Z,102031.94
2018-08-04T10:00:50.470Z,102039.09
2018-08-04T10:03:19.273Z,102032.19
2018-08-04T10:05:48.015Z,102026.39
2018-08-04T10:08:16.637Z,102026.25
2018-08-04T10:10:45.415Z,102023.75
2018-08-04T10:13:14.288Z,102023.31
2018-08-04T10:15:43.055Z,102023.97
2018-08-04T10:18:11.933Z,102009.83
2018-08-04T10:20:40.707Z,102017.06
2018-08-04T10:23:09.550Z,102019.95
2018-08-04T10:25:38.347Z,102010.64
2018-08-04T10:28:07.231Z,102012.17
2018-08-04T10:30:36.111Z,102009.09
2018-08-04T10:33:05.009Z,102002.47
2018-08-04T10:35:33.808Z,102003.66
2018-08-04T10:38:02.450Z,102003.17
2018-08-04T10:40:31.222Z,102001.95
2018-08-04T10:43:00.139Z,102002.02
2018-08-04T10:45:35.094Z,101997.50
2018-08-04T10:48:04.040Z,101998.02
2018-08-04T10:50:32.806Z,101997.53
2018-08-04T10:53:01.710Z,101999.19
2018-08-04T10:55:30.527Z,101990.17
2018-08-04T10:57:59.398Z,101988.75
2018-08-04T11:00:28.194Z,101994.47
2018-08-04T11:02:57.049Z,101989.86
2018-08-04T11:05:26.266Z,101991.69
2018-08-04T11:07:55.177Z,101993.89
2018-08-04T11:10:23.996Z,101989.41
2018-08-04T11:12:52.788Z,101990.52
2018-08-04T11:15:21.716Z,101985.22
2018-08-04T11:17:50.592Z,101987.23
2018-08-04T11:20:19.436Z,101982.06
2018-08-04T11:22:48.230Z,101979.44
2018-08-04T11:25:17.059Z,101980.53
2018-08-04T11:27:46.132Z,101986.91
2018-08-04T11:30:15.072Z,101984.03
2018-08-04T11:32:43.653Z,101994.77
2018-08-04T11:35:12.488Z,101995.31
2018-08-04T11:37:41.268Z,101989.61
2018-08-04T11:40:10.089Z,101987.26
2018-08-04T11:42:38.995Z,101989.58
2018-08-04T11:45:07.837Z,101979.86
2018-08-04T11:47:36.763Z,101990.36
2018-08-04T11:50:05.955Z,101981.64
2018-08-04T11:52:35.020Z,101976.76
2018-08-04T11:55:04.453Z,101978.88
2018-08-04T11:57:33.216Z,101985.67
2018-08-04T12:00:02.002Z,101980.33
2018-08-04T12:02:30.919Z,101971.75
2018-08-04T12:04:59.694Z,101973.45
2018-08-04T12:07:28.870Z,101974.42
2018-08-04T12:09:57.739Z,101968.02
2018-08-04T12:12:26.579Z,101974.39
2018-08-04T12:14:55.379Z,101964.18
2018-08-04T12:17:24.437Z,101973.53
2018-08-04T12:19:53.299Z,101967.67
2018-08-04T12:22:22.330Z,101971.92
2018-08-04T12:24:51.699Z,101975.83
2018-08-04T12:27:20.652Z,101967.67
2018-08-04T12:29:49.410Z,101966.97
2018-08-04T12:32:18.250Z,101975.50
2018-08-04T12:34:47.066Z,101974.75
2018-08-04T12:37:15.868Z,101982.78
2018-08-04T12:39:44.519Z,101967.77
2018-08-04T12:42:13.303Z,101970.22
2018-08-04T12:44:42.561Z,101974.22
2018-08-04T12:47:11.414Z,101973.87
2018-08-04T12:49:40.238Z,101972.93
2018-08-04T12:52:09.028Z,101968.75
2018-08-04T12:54:37.893Z,101971.11
2018-08-04T12:57:06.867Z,101973.65
2018-08-04T12:59:35.793Z,101961.94
2018-08-04T13:02:04.626Z,101969.98
2018-08-04T13:04:33.465Z,101969.16
2018-08-04T13:07:02.308Z,101969.44
2018-08-04T13:09:30.957Z,101972.37
2018-08-04T13:11:59.664Z,101964.63
2018-08-04T13:14:28.246Z,101966.56
2018-08-04T13:16:57.250Z,101959.74
2018-08-04T13:19:26.075Z,101956.64
2018-08-04T13:21:55.040Z,101953.23
2018-08-04T13:24:23.809Z,101955.72
2018-08-04T13:26:52.634Z,101955.44
2018-08-04T13:29:21.747Z,101952.72
2018-08-04T13:31:50.551Z,101955.84
2018-08-04T13:34:19.522Z,101955.52
2018-08-04T13:36:48.630Z,101958.42
2018-08-04T13:39:17.448Z,101957.74
2018-08-04T13:41:46.155Z,101953.80
2018-08-04T13:44:14.955Z,101956.74
2018-08-04T13:46:43.938Z,101946.41
2018-08-04T13:49:12.537Z,101948.75
2018-08-04T13:51:41.350Z,101954.70
2018-08-04T13:54:10.171Z,101954.31
2018-08-04T13:56:39.286Z,101949.95
2018-08-04T13:59:08.346Z,101944.86
2018-08-04T14:01:37.177Z,101951.23
2018-08-04T14:04:05.841Z,101951.73
2018-08-04T14:06:34.616Z,101955.54
2018-08-04T14:09:04.984Z,101959.30
2018-08-04T14:11:33.855Z,101958.02
2018-08-04T14:14:02.982Z,101947.84
2018-08-04T14:16:31.789Z,101946.48
2018-08-04T14:19:00.626Z,101947.95
2018-08-04T14:21:30.114Z,101948.86
2018-08-04T14:23:59.137Z,101956.56
2018-08-04T14:26:27.839Z,101956.52
2018-08-04T14:28:56.939Z,101956.97
2018-08-04T14:31:25.653Z,101963.44
2018-08-04T14:33:54.608Z,101965.40
2018-08-04T14:36:24.116Z,101961.25
2018-08-04T14:38:53.311Z,101948.70
2018-08-04T14:41:22.108Z,101947.10
2018-08-04T14:43:50.741Z,101943.72
2018-08-04T14:46:19.670Z,101947.73
2018-08-04T14:48:48.572Z,101945.27
2018-08-04T14:51:18.244Z,101949.22
2018-08-04T14:53:47.081Z,101941.25
2018-08-04T14:56:15.765Z,101938.27
2018-08-04T14:58:44.365Z,101942.41
2018-08-04T15:01:13.335Z,101935.37
2018-08-04T15:03:42.097Z,101933.50
2018-08-04T15:06:10.954Z,101935.29
2018-08-04T15:08:39.733Z,101940.88
2018-08-04T15:11:08.595Z,101935.70
2018-08-04T15:13:37.726Z,101946.34
2018-08-04T15:16:06.650Z,101946.13
2018-08-04T15:18:35.433Z,101936.98
2018-08-04T15:21:04.344Z,101941.96
2018-08-04T15:23:33.149Z,101939.42
2018-08-04T15:26:02.057Z,101930.35
2018-08-04T15:28:30.720Z,101933.03
2018-08-04T15:30:59.583Z,101930.35
2018-08-04T15:33:28.362Z,101936.41
2018-08-04T15:35:57.282Z,101933.55
2018-08-04T15:38:26.135Z,101937.59
2018-08-04T15:40:54.937Z,101935.33
2018-08-04T15:43:23.751Z,101936.09
2018-08-04T15:45:58.513Z,101940.80
2018-08-04T15:48:27.410Z,101938.91
2018-08-04T15:50:56.164Z,101936.73
2018-08-04T15:53:24.975Z,101934.39
2018-08-04T15:55:53.722Z,101935.14
2018-08-04T15:58:22.521Z,101933.38
2018-08-04T16:00:51.154Z,101932.06
2018-08-04T16:03:19.958Z,101939.66
2018-08-04T16:05:48.567Z,101947.77
2018-08-04T16:08:17.390Z,101946.89
2018-08-04T16:10:46.154Z,101942.73
2018-08-04T16:13:15.127Z,101954.84
2018-08-04T16:15:43.960Z,101951.48
2018-08-04T16:18:12.820Z,101945.98
2018-08-04T16:20:41.571Z,101958.67
2018-08-04T16:23:10.364Z,101960.05
2018-08-04T16:25:39.254Z,101957.61
2018-08-04T16:28:08.048Z,101961.30
2018-08-04T16:30:36.885Z,101966.05
2018-08-04T16:33:05.691Z,101961.89
2018-08-04T16:35:34.514Z,101963.61
2018-08-04T16:38:03.367Z,101968.66
2018-08-04T16:40:32.207Z,101971.55
2018-08-04T16:43:00.814Z,101960.70
2018-08-04T16:45:29.771Z,101968.36
2018-08-04T16:47:58.546Z,101979.41
2018-08-04T16:50:27.451Z,101981.70
2018-08-04T16:52:56.548Z,101990.16
2018-08-04T16:55:25.414Z,101995.85
2018-08-04T16:57:54.195Z,101999.43
2018-08-04T17:00:22.987Z,102012.98
2018-08-04T17:02:51.685Z,102012.80
2018-08-04T17:05:20.470Z,102018.03
2018-08-04T17:07:49.279Z,102022.36
2018-08-04T17:10:18.396Z,102022.00
2018-08-04T17:12:47.209Z,102020.01
2018-08-04T17:15:16.183Z,102023.05
2018-08-04T17:17:44.898Z,102018.97
2018-08-04T17:20:13.688Z,102015.89
2018-08-04T17:22:42.511Z,102012.08
2018-08-04T17:25:11.334Z,102023.55
2018-08-04T17:27:40.164Z,102032.88
2018-08-04T17:30:08.964Z,102037.27
2018-08-04T17:32:37.774Z,102036.91
2018-08-04T17:35:06.638Z,102023.81
2018-08-04T17:37:35.641Z,102013.06
2018-08-04T17:40:04.421Z,102016.09
2018-08-04T17:42:33.304Z,102027.14
2018-08-04T17:45:06.751Z,102033.66
2018-08-04T17:47:35.620Z,102031.30
2018-08-04T17:50:04.708Z,102033.42
2018-08-04T17:52:34.032Z,102032.32
2018-08-04T17:55:02.848Z,102032.19
2018-08-04T17:57:31.704Z,102038.90
2018-08-04T18:00:00.940Z,102033.55
2018-08-04T18:02:29.792Z,102031.91
2018-08-04T18:04:58.640Z,102037.81
2018-08-04T18:07:27.541Z,102043.59
2018-08-04T18:09:56.323Z,102046.05
2018-08-04T18:12:25.095Z,102050.45
2018-08-04T18:14:53.751Z,102044.19
2018-08-04T18:17:22.843Z,102044.24
2018-08-04T18:19:51.663Z,102051.69
2018-08-04T18:22:20.459Z,102039.31
2018-08-04T18:24:49.294Z,102046.17
2018-08-04T18:27:18.069Z,102043.76
2018-08-04T18:29:47.042Z,102049.52
2018-08-04T18:32:15.866Z,102045.25
2018-08-04T18:34:44.821Z,102049.94
2018-08-04T18:37:13.490Z,102046.57
2018-08-04T18:39:42.363Z,102049.02
2018-08-04T18:42:11.339Z,102048.30
2018-08-04T18:44:40.268Z,102056.08
2018-08-04T18:47:09.725Z,102053.41
2018-08-04T18:49:38.638Z,102058.56
2018-08-04T18:52:07.478Z,102056.95
2018-08-04T18:54:36.405Z,102052.76
2018-08-04T18:57:05.234Z,102064.91
2018-08-04T18:59:34.910Z,102064.17
2018-08-04T19:02:03.750Z,102063.56
2018-08-04T19:04:33.041Z,102069.42
2018-08-04T19:07:02.022Z,102065.13
2018-08-04T19:09:31.410Z,102072.89
2018-08-04T19:12:00.190Z,102077.36
2018-08-04T19:14:29.019Z,102075.64
2018-08-04T19:17:00.728Z,102077.28
2018-08-04T19:19:30.890Z,102074.70
2018-08-04T19:22:00.013Z,102081.66
2018-08-04T19:24:28.642Z,102083.94
2018-08-04T19:26:57.411Z,102081.04
2018-08-04T19:29:26.390Z,102079.47
2018-08-04T19:31:55.223Z,102083.44
2018-08-04T19:34:24.019Z,102091.57
2018-08-04T19:36:52.758Z,102095.41
2018-08-04T19:39:21.462Z,102093.63
2018-08-04T19:41:50.238Z,102086.98
2018-08-04T19:44:19.114Z,102094.57
2018-08-04T19:46:48.008Z,102096.60
2018-08-04T19:49:16.854Z,102101.00
2018-08-04T19:51:45.664Z,102107.38
2018-08-04T19:54:14.455Z,102109.52
2018-08-04T19:56:43.335Z,102110.53
2018-08-04T19:59:12.152Z,102111.73
2018-08-04T20:01:40.983Z,102112.36
2018-08-04T20:04:09.788Z,102114.56
2018-08-04T20:06:38.683Z,102114.17
2018-08-04T20:09:08.943Z,102124.88
2018-08-04T20:11:37.943Z,102122.13
2018-08-04T20:14:06.946Z,102124.89
2018-08-04T20:16:35.747Z,102120.73
2018-08-04T20:19:04.601Z,102124.91
2018-08-04T20:21:33.471Z,102130.06
2018-08-04T20:24:02.751Z,102131.06
2018-08-04T20:26:31.528Z,102130.86
2018-08-04T20:29:00.483Z,102130.08
2018-08-04T20:31:29.606Z,102133.45
2018-08-04T20:33:58.539Z,102139.21
2018-08-04T20:36:27.610Z,102138.63
2018-08-04T20:38:57.024Z,102140.02
2018-08-04T20:41:25.735Z,102146.16
2018-08-04T20:43:54.547Z,102147.55
2018-08-04T20:46:23.489Z,102140.61
2018-08-04T20:48:52.591Z,102140.79
2018-08-04T20:51:21.397Z,102144.37
2018-08-04T20:53:50.199Z,102139.98
2018-08-04T20:56:19.104Z,102143.94
2018-08-04T20:58:48.058Z,102131.84
2018-08-04T21:01:33.663Z,102136.77
2018-08-04T21:04:02.886Z,102134.80
2018-08-04T21:06:31.730Z,102131.44
2018-08-04T21:09:00.570Z,102133.42
2018-08-04T21:11:29.551Z,102131.44
2018-08-04T21:13:58.400Z,102136.12
2018-08-04T21:16:27.246Z,102131.20
2018-08-04T21:18:56.060Z,102126.81
2018-08-04T21:21:25.069Z,102123.06
2018-08-04T21:23:53.670Z,102130.98
2018-08-04T21:26:22.487Z,102132.36
2018-08-04T21:28:51.365Z,102134.13
2018-08-04T21:31:20.243Z,102129.58
2018-08-04T21:33:49.103Z,102131.19
2018-08-04T21:36:17.993Z,102142.44
2018-08-04T21:38:46.902Z,102139.50
2018-08-04T21:41:15.566Z,102146.84
2018-08-04T21:43:44.353Z,102149.40
2018-08-04T21:46:13.279Z,102146.38
2018-08-04T21:48:42.299Z,102139.06
2018-08-04T21:51:11.147Z,102143.01
2018-08-04T21:53:39.992Z,102148.41
2018-08-04T21:56:08.883Z,102146.66
2018-08-04T21:58:37.936Z,102145.27
2018-08-04T22:01:12.074Z,102138.23
2018-08-04T22:03:42.495Z,102144.38
2018-08-04T22:06:11.748Z,102141.84
2018-08-04T22:08:57.461Z,102137.05
2018-08-04T22:11:26.076Z,102133.70
2018-08-04T22:13:54.922Z,102135.45
2018-08-04T22:16:23.734Z,102136.50
2018-08-04T22:18:53.055Z,102135.72
2018-08-04T22:21:21.835Z,102138.13
2018-08-04T22:23:50.641Z,102136.83
2018-08-04T22:26:19.448Z,102136.86
2018-08-04T22:28:48.278Z,102143.27
2018-08-04T22:31:17.208Z,102137.25
2018-08-04T22:33:53.158Z,102140.05
2018-08-04T22:36:22.208Z,102141.61
2018-08-04T22:38:51.012Z,102142.98
2018-08-04T22:41:20.044Z,102138.64
2018-08-04T22:43:48.824Z,102140.94
2018-08-04T22:46:17.653Z,102139.33
2018-08-04T22:48:47.836Z,102139.20
2018-08-04T22:51:22.720Z,102143.55
2018-08-04T22:53:51.656Z,102139.62
2018-08-04T22:56:20.258Z,102136.94
2018-08-04T22:58:49.119Z,102133.09
2018-08-04T23:01:17.968Z,102140.62
2018-08-04T23:06:15.643Z,102140.61
2018-08-04T23:08:44.508Z,102147.72
2018-08-04T23:11:13.311Z,102143.39
2018-08-04T23:13:42.232Z,102146.17
2018-08-04T23:16:11.127Z,102146.61
2018-08-04T23:18:40.099Z,102142.06
2018-08-04T23:21:08.995Z,102140.19
2018-08-04T23:23:37.905Z,102143.36
2018-08-04T23:26:06.841Z,102152.02
2018-08-04T23:28:35.695Z,102151.38
2018-08-04T23:31:04.604Z,102149.98
2018-08-04T23:33:33.455Z,102153.36
2018-08-04T23:36:02.272Z,102157.08
2018-08-04T23:38:31.129Z,102154.72
2018-08-04T23:40:59.949Z,102154.52
2018-08-04T23:43:28.804Z,102154.66
2018-08-04T23:45:57.851Z,102159.22
2018-08-04T23:48:26.770Z,102160.44
2018-08-04T23:50:55.596Z,102165.33
2018-08-04T23:53:24.577Z,102172.27
2018-08-04T23:55:53.395Z,102172.25
2018-08-04T23:58:22.184Z,102176.35
